Time;durP1;ratioP1;P1;durP2;ratioP2;P2;SDS_P1;SDS_P2;PMS_P1;PMS_P2;Temp;Humidity;BMP_temperature;BMP_pressure;BME280_temperature;BME280_humidity;BME280_pressure;Samples;Min_cycle;Max_cycle;Signal;HPM_P1;HPM_P2
2023/10/15 00:00:17;;;;;;;;;;;;;;;7.73;71.95;100184.52;106419;1257;126532;-78
2023/10/15 00:03:06;;;;;;;;;;;;;;;7.72;71.98;100188.87;106497;1259;61293;-78
2023/10/15 00:05:35;;;;;;;;;;;;;;;7.71;71.96;100189.18;106498;1259;74104;-77
2023/10/15 00:08:01;;;;;;;;;;;;;;;7.71;72.03;100191.63;105618;1261;126318;-78
2023/10/15 00:10:30;;;;;;;;;;;;;;;7.72;72.17;100183.45;106411;1260;72748;-78
2023/10/15 00:12:57;;;;;;;;;;;;;;;7.76;72.35;100176.56;106444;1258;125136;-79
2023/10/15 00:15:25;;;;;;;;;;;;;;;7.81;72.40;100172.34;106394;1260;62102;-78
2023/10/15 00:17:54;;;;;;;;;;;;;;;7.83;72.27;100171.32;106655;1262;75530;-78
2023/10/15 00:20:22;;;;;;;;;;;;;;;7.83;72.20;100174.67;106462;1262;125715;-78
2023/10/15 00:22:50;;;;;;;;;;;;;;;7.83;72.19;100170.45;106506;1260;72742;-78
2023/10/15 00:25:18;;;;;;;;;;;;;;;7.85;72.35;100176.64;106383;1261;126158;-78
2023/10/15 00:27:52;;;;;;;;;;;;;;;7.86;72.24;100178.95;106474;1259;62081;-78
2023/10/15 00:30:19;;;;;;;;;;;;;;;7.89;72.34;100185.32;106614;1258;125230;-77
2023/10/15 00:32:46;;;;;;;;;;;;;;;7.90;72.27;100182.01;106381;1260;65100;-77
2023/10/15 00:35:22;;;;;;;;;;;;;;;7.89;72.08;100181.46;106416;1259;72075;-78
2023/10/15 00:37:54;;;;;;;;;;;;;;;7.86;72.08;100172.11;106241;1259;127989;-77
2023/10/15 00:40:21;;;;;;;;;;;;;;;7.85;72.13;100176.98;106397;1259;61596;-78
2023/10/15 00:42:48;;;;;;;;;;;;;;;7.83;72.26;100173.25;106421;1259;124340;-77
2023/10/15 00:45:15;;;;;;;;;;;;;;;7.81;72.25;100175.98;106628;1262;66267;-77
2023/10/15 00:47:42;;;;;;;;;;;;;;;7.78;72.32;100178.19;106403;1262;73292;-77
2023/10/15 00:50:09;;;;;;;;;;;;;;;7.75;72.31;100178.64;105710;1262;124540;-78
2023/10/15 00:52:42;;;;;;;;;;;;;;;7.72;72.37;100175.23;105698;1260;62172;-78
2023/10/15 00:55:16;;;;;;;;;;;;;;;7.70;72.47;100172.56;105788;1262;124301;-77
2023/10/15 00:57:46;;;;;;;;;;;;;;;7.67;72.47;100169.70;105645;1260;64385;-78
2023/10/15 01:00:39;;;;;;;;;;;;;;;7.63;72.51;100165.39;105607;1261;125825;-77
2023/10/15 01:03:03;;;;;;;;;;;;;;;7.62;72.55;100164.84;105800;1260;61219;-79
2023/10/15 01:05:35;;;;;;;;;;;;;;;7.61;72.69;100159.22;108933;1258;59808;-77
2023/10/15 01:08:04;;;;;;;;;;;;;;;7.59;72.65;100158.47;105765;1260;124903;-78
2023/10/15 01:10:37;;;;;;;;;;;;;;;7.58;72.66;100160.02;106435;1262;66935;-77
2023/10/15 01:13:17;;;;;;;;;;;;;;;7.59;72.70;100165.29;105624;1260;125292;-77
2023/10/15 01:15:51;;;;;;;;;;;;;;;7.60;72.80;100164.77;105784;1260;62150;-77
2023/10/15 01:18:18;;;;;;;;;;;;;;;7.59;72.80;100161.27;105470;1258;125099;-78
2023/10/15 01:20:45;;;;;;;;;;;;;;;7.60;72.87;100161.46;105778;1260;75455;-79
2023/10/15 01:23:28;;;;;;;;;;;;;;;7.59;72.90;100160.56;105629;1263;66231;-77
2023/10/15 01:25:57;;;;;;;;;;;;;;;7.59;72.90;100172.27;105925;1261;124937;-78
2023/10/15 01:28:36;;;;;;;;;;;;;;;7.58;72.81;100169.46;105840;1259;62166;-78
2023/10/15 01:31:06;;;;;;;;;;;;;;;7.57;72.77;100158.58;105760;1259;125077;-77
2023/10/15 01:33:45;;;;;;;;;;;;;;;7.56;72.79;100161.01;105730;1259;74212;-77
2023/10/15 01:36:17;;;;;;;;;;;;;;;7.54;72.76;100162.87;105616;1262;124390;-77
2023/10/15 01:38:44;;;;;;;;;;;;;;;7.51;72.79;100162.10;105834;1263;73150;-77
2023/10/15 01:41:15;;;;;;;;;;;;;;;7.47;72.81;100167.93;105765;1262;62051;-78
2023/10/15 01:43:46;;;;;;;;;;;;;;;7.43;72.84;100156.27;105674;1262;124705;-78
2023/10/15 01:46:23;;;;;;;;;;;;;;;7.41;72.92;100160.59;105882;1259;75473;-78
2023/10/15 01:48:50;;;;;;;;;;;;;;;7.38;72.92;100163.30;105802;1257;124249;-78
2023/10/15 01:51:16;;;;;;;;;;;;;;;7.35;73.03;100163.05;105716;1260;71055;-78
2023/10/15 01:53:45;;;;;;;;;;;;;;;7.34;72.98;100165.27;105780;1259;62034;-78
2023/10/15 01:56:17;;;;;;;;;;;;;;;7.31;73.00;100161.70;106566;1259;124948;-78
2023/10/15 01:58:44;;;;;;;;;;;;;;;7.29;73.16;100157.27;106331;1263;74274;-77
2023/10/15 02:02:01;;;;;;;;;;;;;;;7.27;73.12;100163.52;106293;1260;125086;-76
2023/10/15 02:04:01;;;;;;;;;;;;;;;7.26;73.16;100165.73;105679;1260;71415;-77
2023/10/15 02:06:30;;;;;;;;;;;;;;;7.25;73.19;100168.67;105538;1260;125122;-77
2023/10/15 02:08:57;;;;;;;;;;;;;;;7.25;73.27;100170.09;105786;1259;61939;-77
2023/10/15 02:11:24;;;;;;;;;;;;;;;7.25;73.24;100174.11;106535;1260;74192;-77
2023/10/15 02:13:51;;;;;;;;;;;;;;;7.25;73.12;100177.41;106375;1259;124960;-78
2023/10/15 02:16:25;;;;;;;;;;;;;;;7.24;73.19;100181.73;106486;1259;71068;-78
2023/10/15 02:18:52;;;;;;;;;;;;;;;7.23;73.24;100181.38;106355;1259;125198;-78
2023/10/15 02:21:19;;;;;;;;;;;;;;;7.25;73.30;100185.10;106499;1258;60371;-78
2023/10/15 02:23:52;;;;;;;;;;;;;;;7.26;73.27;100183.36;106452;1260;75600;-77
2023/10/15 02:26:23;;;;;;;;;;;;;;;7.26;73.28;100181.98;107687;1259;124914;-77
2023/10/15 02:28:53;;;;;;;;;;;;;;;7.28;73.31;100185.17;106472;1258;71412;-78
2023/10/15 02:31:22;;;;;;;;;;;;;;;7.28;73.23;100184.14;106371;1262;124815;-81
2023/10/15 02:33:50;;;;;;;;;;;;;;;7.29;73.20;100190.27;106479;1260;62086;-77
2023/10/15 02:36:17;;;;;;;;;;;;;;;7.28;73.20;100198.80;106389;1259;124418;-77
2023/10/15 02:38:53;;;;;;;;;;;;;;;7.28;73.21;100200.18;106454;1262;65951;-78
2023/10/15 02:41:20;;;;;;;;;;;;;;;7.26;73.29;100198.21;106374;1259;71119;-81
2023/10/15 02:43:56;;;;;;;;;;;;;;;7.24;73.26;100192.91;106449;1258;124376;-78
2023/10/15 02:46:22;;;;;;;;;;;;;;;7.22;73.29;100190.08;106529;1262;61837;-76
2023/10/15 02:48:53;;;;;;;;;;;;;;;7.21;73.23;100192.84;105944;1260;125235;-81
2023/10/15 02:51:23;;;;;;;;;;;;;;;7.19;73.27;100191.21;105703;1264;65799;-78
2023/10/15 02:53:54;;;;;;;;;;;;;;;7.17;73.36;100194.65;106404;1262;71561;-78
2023/10/15 02:56:20;;;;;;;;;;;;;;;7.15;73.34;100196.16;106400;1261;124908;-78
2023/10/15 02:58:47;;;;;;;;;;;;;;;7.14;73.41;100199.08;105753;1259;61951;-78
2023/10/15 03:01:20;;;;;;;;;;;;;;;7.13;73.48;100199.21;105630;1260;125058;-79
2023/10/15 03:03:50;;;;;;;;;;;;;;;7.13;73.47;100200.80;105751;1262;66242;-78
2023/10/15 03:06:24;;;;;;;;;;;;;;;7.13;73.57;100209.52;105491;1260;125590;-78
2023/10/15 03:08:51;;;;;;;;;;;;;;;7.13;73.56;100205.87;105776;1259;62216;-78
2023/10/15 03:11:19;;;;;;;;;;;;;;;7.15;73.66;100211.16;105865;1259;62059;-78
2023/10/15 03:13:50;;;;;;;;;;;;;;;7.17;73.78;100206.50;107618;1259;124920;-77
2023/10/15 03:16:23;;;;;;;;;;;;;;;7.19;73.69;100213.02;105767;1258;66314;-77
2023/10/15 03:18:50;;;;;;;;;;;;;;;7.17;73.58;100212.62;105742;1259;125069;-77
2023/10/15 03:21:25;;;;;;;;;;;;;;;7.17;73.48;100219.59;105646;1260;62197;-77
2023/10/15 03:23:52;;;;;;;;;;;;;;;7.16;73.50;100217.13;105742;1261;62042;-77
2023/10/15 03:26:18;;;;;;;;;;;;;;;7.18;73.60;100216.14;105796;1262;124458;-77
2023/10/15 03:28:46;;;;;;;;;;;;;;;7.19;73.59;100215.98;105761;1258;66260;-77
2023/10/15 03:31:15;;;;;;;;;;;;;;;7.18;73.65;100212.45;105628;1264;125372;-77
2023/10/15 03:34:03;;;;;;;;;;;;;;;7.18;73.72;100207.04;105737;1262;62047;-78
2023/10/15 03:36:51;;;;;;;;;;;;;;;7.19;73.74;100206.23;105593;1262;125522;-76
2023/10/15 03:42:40;;;;;;;;;;;;;;;7.17;73.67;100212.95;105700;1259;65034;-77
2023/10/15 03:44:44;;;;;;;;;;;;;;;7.14;73.65;100207.80;105655;1260;71431;-77
2023/10/15 03:47:12;;;;;;;;;;;;;;;7.12;73.74;100210.90;105765;1262;62059;-77
2023/10/15 03:49:39;;;;;;;;;;;;;;;7.10;73.66;100213.79;105650;1259;125073;-77
2023/10/15 03:52:14;;;;;;;;;;;;;;;7.08;73.74;100212.31;105752;1260;74957;-77
2023/10/15 03:54:47;;;;;;;;;;;;;;;7.08;73.77;100213.20;105644;1261;125823;-77
2023/10/15 03:57:17;;;;;;;;;;;;;;;7.07;73.81;100208.46;105749;1259;73037;-77
2023/10/15 03:59:46;;;;;;;;;;;;;;;7.09;73.82;100213.40;105887;1259;62171;-78
2023/10/15 04:02:22;;;;;;;;;;;;;;;7.09;73.71;100219.34;107391;1259;125169;-77
2023/10/15 04:05:01;;;;;;;;;;;;;;;7.11;73.85;100219.03;105730;1262;74625;-78
2023/10/15 04:07:30;;;;;;;;;;;;;;;7.13;73.74;100218.77;105708;1258;124932;-77
2023/10/15 04:09:58;;;;;;;;;;;;;;;7.14;73.69;100214.96;105741;1259;72797;-77
2023/10/15 04:12:27;;;;;;;;;;;;;;;7.14;73.74;100212.88;105654;1259;126171;-77
2023/10/15 04:14:55;;;;;;;;;;;;;;;7.16;73.84;100215.54;105704;1258;62149;-78
2023/10/15 04:17:22;;;;;;;;;;;;;;;7.17;73.81;100213.65;105709;1258;75481;-77
2023/10/15 04:19:49;;;;;;;;;;;;;;;7.18;73.78;100208.45;105631;1262;124908;-77
2023/10/15 04:22:15;;;;;;;;;;;;;;;7.18;73.79;100205.14;105826;1259;72472;-77
2023/10/15 04:24:46;;;;;;;;;;;;;;;7.19;73.75;100204.99;105654;1258;125088;-77
2023/10/15 04:27:17;;;;;;;;;;;;;;;7.19;73.66;100213.02;105655;1258;62074;-77
2023/10/15 04:29:50;;;;;;;;;;;;;;;7.19;73.72;100209.87;105679;1262;74421;-76
2023/10/15 04:32:28;;;;;;;;;;;;;;;7.21;73.85;100217.95;108850;1259;124274;-77
2023/10/15 04:35:04;;;;;;;;;;;;;;;7.24;73.91;100222.41;108936;1259;72604;-77
2023/10/15 04:37:34;;;;;;;;;;;;;;;7.29;73.89;100221.16;107106;1259;124218;-77
2023/10/15 04:40:04;;;;;;;;;;;;;;;7.36;73.95;100219.10;105765;1260;62142;-78
2023/10/15 04:42:37;;;;;;;;;;;;;;;7.41;73.81;100212.08;105942;1259;126478;-76
2023/10/15 04:45:20;;;;;;;;;;;;;;;7.41;73.75;100209.80;105688;1259;65032;-78
2023/10/15 04:47:52;;;;;;;;;;;;;;;7.39;73.62;100212.20;105673;1264;71999;-78
2023/10/15 04:50:19;;;;;;;;;;;;;;;7.36;73.65;100212.65;105747;1260;125013;-77
2023/10/15 04:52:46;;;;;;;;;;;;;;;7.36;73.64;100214.23;105895;1262;62133;-76
2023/10/15 04:55:16;;;;;;;;;;;;;;;7.36;73.68;100216.13;105594;1260;125254;-79
2023/10/15 04:57:44;;;;;;;;;;;;;;;7.36;73.68;100215.80;105692;1262;66247;-79
2023/10/15 05:00:11;;;;;;;;;;;;;;;7.37;73.67;100217.71;105675;1260;126116;-78
2023/10/15 05:02:39;;;;;;;;;;;;;;;7.36;73.59;100212.65;105876;1262;62175;-79
2023/10/15 05:05:06;;;;;;;;;;;;;;;7.36;73.57;100212.98;106420;1262;62040;-78
2023/10/15 05:07:32;;;;;;;;;;;;;;;7.35;73.47;100208.08;105566;1259;125237;-79
2023/10/15 05:09:59;;;;;;;;;;;;;;;7.36;73.47;100205.30;105639;1259;66560;-77
2023/10/15 05:12:28;;;;;;;;;;;;;;;7.36;73.46;100204.95;105710;1259;125461;-77
2023/10/15 05:14:55;;;;;;;;;;;;;;;7.36;73.45;100200.27;105850;1258;62102;-77
2023/10/15 05:17:21;;;;;;;;;;;;;;;7.37;73.48;100195.92;105655;1260;62092;-78
2023/10/15 05:19:54;;;;;;;;;;;;;;;7.39;73.59;100198.08;105817;1257;124293;-77
2023/10/15 05:22:21;;;;;;;;;;;;;;;7.41;73.56;100200.75;105756;1264;66283;-80
2023/10/15 05:24:47;;;;;;;;;;;;;;;7.40;73.45;100196.88;106559;1260;124511;-79
2023/10/15 05:27:14;;;;;;;;;;;;;;;7.40;73.36;100200.37;106599;1260;62174;-79
2023/10/15 05:29:40;;;;;;;;;;;;;;;7.39;73.39;100201.40;106627;1260;60820;-81
2023/10/15 05:32:07;;;;;;;;;;;;;;;7.40;73.40;100201.07;106489;1260;125197;-79
2023/10/15 05:34:33;;;;;;;;;;;;;;;7.42;73.50;100194.30;106643;1261;64496;-78
2023/10/15 05:37:02;;;;;;;;;;;;;;;7.47;73.44;100196.70;106390;1260;125094;-78
2023/10/15 05:39:28;;;;;;;;;;;;;;;7.50;73.45;100196.27;105693;1262;62056;-78
2023/10/15 05:41:55;;;;;;;;;;;;;;;7.54;73.48;100199.71;105760;1259;62055;-77
2023/10/15 05:44:22;;;;;;;;;;;;;;;7.58;73.39;100197.56;105588;1260;125027;-78
2023/10/15 05:46:48;;;;;;;;;;;;;;;7.62;73.33;100203.78;105701;1262;64746;-77
2023/10/15 05:49:15;;;;;;;;;;;;;;;7.66;73.21;100205.12;105663;1260;125087;-77
2023/10/15 05:51:41;;;;;;;;;;;;;;;7.71;73.27;100206.65;105738;1259;62103;-79
2023/10/15 05:54:09;;;;;;;;;;;;;;;7.75;73.21;100210.80;105678;1259;125568;-77
2023/10/15 05:56:35;;;;;;;;;;;;;;;7.81;73.24;100209.38;107148;1260;75491;-78
2023/10/15 05:59:02;;;;;;;;;;;;;;;7.87;73.14;100216.16;105762;1262;66203;-77
2023/10/15 06:01:31;;;;;;;;;;;;;;;7.95;73.09;100213.41;108689;1257;124764;-78
2023/10/15 06:03:59;;;;;;;;;;;;;;;8.02;72.93;100225.81;105791;1260;62140;-79
2023/10/15 06:06:26;;;;;;;;;;;;;;;8.07;73.03;100224.06;105693;1259;124574;-80
2023/10/15 06:08:53;;;;;;;;;;;;;;;8.13;72.82;100228.75;105792;1262;76515;-80
2023/10/15 06:11:20;;;;;;;;;;;;;;;8.17;72.68;100230.77;105866;1261;66042;-80
2023/10/15 06:13:47;;;;;;;;;;;;;;;8.20;72.64;100226.13;105586;1258;124413;-80
2023/10/15 06:16:14;;;;;;;;;;;;;;;8.24;72.51;100233.39;105784;1260;62145;-80
2023/10/15 06:18:41;;;;;;;;;;;;;;;8.28;72.64;100240.16;105711;1259;125103;-80
2023/10/15 06:21:08;;;;;;;;;;;;;;;8.38;72.56;100246.36;105769;1260;75503;-80
2023/10/15 06:23:34;;;;;;;;;;;;;;;8.47;72.44;100252.03;105747;1262;65796;-81
2023/10/15 06:26:01;;;;;;;;;;;;;;;8.51;72.25;100248.10;105630;1259;125289;-81
2023/10/15 06:28:27;;;;;;;;;;;;;;;8.55;72.20;100257.83;105685;1260;62227;-81
2023/10/15 06:30:54;;;;;;;;;;;;;;;8.62;72.21;100259.42;105673;1259;124947;-81
2023/10/15 06:33:20;;;;;;;;;;;;;;;8.69;72.04;100263.95;105772;1259;62114;-81
2023/10/15 06:35:47;;;;;;;;;;;;;;;8.76;71.87;100272.87;105798;1260;67169;-79
2023/10/15 06:38:17;;;;;;;;;;;;;;;8.83;71.79;100274.79;105751;1260;124646;-79
2023/10/15 06:40:44;;;;;;;;;;;;;;;8.90;71.74;100279.15;105815;1262;62407;-80
2023/10/15 06:43:11;;;;;;;;;;;;;;;8.95;71.64;100280.34;105731;1261;124393;-80
2023/10/15 06:45:38;;;;;;;;;;;;;;;9.07;71.73;100280.27;105807;1262;74091;-80
2023/10/15 06:48:05;;;;;;;;;;;;;;;9.20;71.55;100280.39;105730;1260;64906;-79
2023/10/15 06:50:33;;;;;;;;;;;;;;;9.26;71.24;100281.73;105537;1262;124846;-80
2023/10/15 06:53:01;;;;;;;;;;;;;;;9.28;71.13;100289.50;105775;1260;61920;-80
2023/10/15 06:55:28;;;;;;;;;;;;;;;9.28;70.93;100292.30;106331;1262;124360;-80
2023/10/15 06:57:54;;;;;;;;;;;;;;;9.38;71.22;100294.96;106546;1262;75511;-80
2023/10/15 07:00:21;;;;;;;;;;;;;;;9.57;71.22;100296.42;106423;1258;125621;-79
2023/10/15 07:02:51;;;;;;;;;;;;;;;9.62;70.85;100291.98;106508;1260;72915;-80
2023/10/15 07:05:20;;;;;;;;;;;;;;;9.60;70.68;100288.98;108245;1257;62423;-80
2023/10/15 07:07:47;;;;;;;;;;;;;;;9.61;70.61;100290.04;106363;1260;125394;-79
2023/10/15 07:10:16;;;;;;;;;;;;;;;9.63;70.59;100285.89;105867;1257;73387;-79
2023/10/15 07:12:44;;;;;;;;;;;;;;;9.66;70.60;100277.38;105729;1264;125285;-79
2023/10/15 07:15:11;;;;;;;;;;;;;;;9.67;70.80;100290.70;106057;1261;71401;-79
2023/10/15 07:17:38;;;;;;;;;;;;;;;9.69;70.84;100295.48;105926;1257;61994;-79
2023/10/15 07:20:14;;;;;;;;;;;;;;;9.73;70.85;100297.67;105837;1261;124926;-79
2023/10/15 07:22:43;;;;;;;;;;;;;;;9.75;70.67;100305.22;105737;1264;75582;-80
2023/10/15 07:25:10;;;;;;;;;;;;;;;9.75;70.62;100302.27;106084;1257;124464;-81
2023/10/15 07:27:37;;;;;;;;;;;;;;;9.76;70.61;100306.30;105794;1260;71558;-82
2023/10/15 07:30:06;;;;;;;;;;;;;;;9.77;70.39;100300.37;106590;1260;61955;-81
2023/10/15 07:32:33;;;;;;;;;;;;;;;9.77;70.25;100301.95;106609;1260;62072;-80
2023/10/15 07:34:59;;;;;;;;;;;;;;;9.78;70.33;100302.15;105715;1260;75488;-80
2023/10/15 07:37:26;;;;;;;;;;;;;;;9.81;70.37;100307.29;105698;1258;124515;-80
2023/10/15 07:39:53;;;;;;;;;;;;;;;9.85;70.40;100305.45;106349;1260;72784;-81
2023/10/15 07:42:20;;;;;;;;;;;;;;;9.89;70.26;100305.71;106390;1259;124790;-80
2023/10/15 07:44:46;;;;;;;;;;;;;;;9.91;69.90;100306.79;106456;1261;61971;-80
2023/10/15 07:47:15;;;;;;;;;;;;;;;9.94;69.89;100314.04;106464;1262;75494;-80
2023/10/15 07:49:41;;;;;;;;;;;;;;;10.03;69.95;100321.40;106436;1257;124936;-80
2023/10/15 07:52:08;;;;;;;;;;;;;;;10.16;69.90;100317.99;106558;1259;71341;-79
2023/10/15 07:54:34;;;;;;;;;;;;;;;10.31;69.69;100320.05;106354;1260;124907;-81
2023/10/15 07:57:01;;;;;;;;;;;;;;;10.39;69.67;100322.50;106412;1258;62092;-80
2023/10/15 07:59:28;;;;;;;;;;;;;;;10.50;69.59;100330.23;106465;1260;73840;-81
2023/10/15 08:01:54;;;;;;;;;;;;;;;10.55;69.22;100331.03;106390;1262;125093;-82
2023/10/15 08:04:21;;;;;;;;;;;;;;;10.63;69.39;100329.06;106564;1257;73049;-81
2023/10/15 08:06:49;;;;;;;;;;;;;;;10.73;69.49;100333.81;106539;1257;124655;-80
2023/10/15 08:09:16;;;;;;;;;;;;;;;10.93;69.44;100339.60;106471;1259;61939;-81
2023/10/15 08:11:43;;;;;;;;;;;;;;;11.16;69.06;100334.00;106495;1262;75505;-81
2023/10/15 08:14:10;;;;;;;;;;;;;;;11.37;68.79;100339.25;106445;1260;124458;-81
2023/10/15 08:16:37;;;;;;;;;;;;;;;11.57;68.67;100336.03;106383;1260;72598;-82
2023/10/15 08:19:04;;;;;;;;;;;;;;;11.85;68.40;100338.01;106521;1258;126157;-81
2023/10/15 08:21:31;;;;;;;;;;;;;;;12.00;68.09;100338.56;106517;1258;62501;-81
2023/10/15 08:23:58;;;;;;;;;;;;;;;12.23;67.93;100342.88;106418;1259;74380;-80
2023/10/15 08:26:24;;;;;;;;;;;;;;;12.42;67.47;100342.04;106358;1259;124450;-81
2023/10/15 08:28:51;;;;;;;;;;;;;;;12.47;66.66;100340.34;106460;1260;71918;-81
2023/10/15 08:31:17;;;;;;;;;;;;;;;12.42;66.19;100343.80;106397;1259;124673;-81
2023/10/15 08:33:44;;;;;;;;;;;;;;;12.48;66.34;100343.33;106402;1259;62068;-81
2023/10/15 08:36:11;;;;;;;;;;;;;;;12.55;66.26;100337.96;106404;1259;124612;-84
2023/10/15 08:38:37;;;;;;;;;;;;;;;12.54;66.18;100342.01;106452;1257;65128;-81
2023/10/15 08:41:04;;;;;;;;;;;;;;;12.60;65.96;100347.01;106414;1257;72681;-81
2023/10/15 08:43:32;;;;;;;;;;;;;;;12.57;65.55;100340.27;106292;1262;125327;-81
2023/10/15 08:45:59;;;;;;;;;;;;;;;12.52;65.41;100334.77;106407;1257;61954;-81
2023/10/15 08:48:28;;;;;;;;;;;;;;;12.43;65.40;100352.62;106322;1260;124741;-81
2023/10/15 08:50:54;;;;;;;;;;;;;;;12.38;65.35;100353.45;106572;1260;64669;-81
2023/10/15 08:53:22;;;;;;;;;;;;;;;12.39;65.36;100362.25;106455;1260;73365;-81
2023/10/15 08:55:49;;;;;;;;;;;;;;;12.41;65.43;100370.19;106488;1259;124805;-81
2023/10/15 08:58:17;;;;;;;;;;;;;;;12.55;65.46;100372.46;106454;1262;61736;-80
2023/10/15 09:00:44;;;;;;;;;;;;;;;12.83;65.85;100372.92;106328;1264;124586;-80
2023/10/15 09:03:14;;;;;;;;;;;;;;;13.03;65.08;100378.20;106370;1263;66732;-81
2023/10/15 09:05:42;;;;;;;;;;;;;;;13.14;64.69;100386.07;106379;1259;74164;-81
2023/10/15 09:08:09;;;;;;;;;;;;;;;13.23;64.38;100388.97;106459;1259;124394;-81
2023/10/15 09:10:40;;;;;;;;;;;;;;;13.29;64.16;100393.77;106462;1260;62137;-81
2023/10/15 09:13:14;;;;;;;;;;;;;;;13.34;64.27;100398.25;106535;1259;125027;-82
2023/10/15 09:15:43;;;;;;;;;;;;;;;13.41;63.88;100403.23;106455;1259;66286;-81
2023/10/15 09:18:11;;;;;;;;;;;;;;;13.36;63.47;100406.90;108543;1259;268511;-80
2023/10/15 09:20:42;;;;;;;;;;;;;;;13.37;63.64;100398.61;106859;1275;62166;-80
2023/10/15 09:23:09;;;;;;;;;;;;;;;13.33;63.32;100400.36;106719;1260;62136;-80
2023/10/15 09:25:35;;;;;;;;;;;;;;;13.22;63.13;100395.30;106324;1258;125270;-81
2023/10/15 09:28:02;;;;;;;;;;;;;;;12.99;62.89;100389.28;106717;1260;66096;-81
2023/10/15 09:30:32;;;;;;;;;;;;;;;12.77;62.93;100380.08;106431;1260;124657;-81
2023/10/15 09:32:59;;;;;;;;;;;;;;;12.52;62.91;100377.17;106545;1262;62199;-81
2023/10/15 09:35:25;;;;;;;;;;;;;;;12.38;63.17;100383.88;106425;1260;61729;-82
2023/10/15 09:37:54;;;;;;;;;;;;;;;12.36;63.33;100386.33;106252;1260;124605;-82
2023/10/15 09:40:20;;;;;;;;;;;;;;;12.40;63.35;100391.65;108184;1258;66195;-81
2023/10/15 09:42:53;;;;;;;;;;;;;;;12.53;63.68;100381.95;106282;1262;124882;-79
2023/10/15 09:45:23;;;;;;;;;;;;;;;12.68;63.35;100386.68;107039;1260;61976;-81
2023/10/15 09:47:52;;;;;;;;;;;;;;;12.80;63.19;100391.02;106513;1259;62150;-81
2023/10/15 09:50:25;;;;;;;;;;;;;;;12.98;63.02;100395.96;106288;1260;124640;-81
2023/10/15 09:53:00;;;;;;;;;;;;;;;13.09;62.57;100399.58;106604;1257;66197;-82
2023/10/15 09:55:28;;;;;;;;;;;;;;;13.21;62.21;100402.86;106832;1257;124644;-81
2023/10/15 09:57:58;;;;;;;;;;;;;;;13.28;61.89;100399.74;106314;1260;62040;-81
2023/10/15 10:03:30;;;;;;;;;;;;;;;13.07;61.79;100393.75;106319;1260;75627;-81
2023/10/15 10:06:09;;;;;;;;;;;;;;;12.98;61.59;100395.43;106435;1257;66010;-81
2023/10/15 10:08:36;;;;;;;;;;;;;;;12.95;62.05;100393.46;106524;1262;72489;-81
2023/10/15 10:11:06;;;;;;;;;;;;;;;13.07;62.01;100399.56;106412;1259;62174;-79
2023/10/15 10:13:37;;;;;;;;;;;;;;;13.08;61.50;100400.10;105712;1262;124569;-79
2023/10/15 10:16:06;;;;;;;;;;;;;;;12.98;61.35;100403.70;105871;1257;74409;-79
2023/10/15 10:18:36;;;;;;;;;;;;;;;12.94;61.51;100405.25;105681;1258;124550;-79
2023/10/15 10:21:06;;;;;;;;;;;;;;;12.88;61.37;100403.61;105649;1257;72646;-79
2023/10/15 10:23:33;;;;;;;;;;;;;;;12.75;61.17;100399.79;105812;1258;62095;-80
2023/10/15 10:25:59;;;;;;;;;;;;;;;12.72;61.40;100399.92;105713;1263;124413;-79
2023/10/15 10:28:26;;;;;;;;;;;;;;;12.76;61.49;100401.55;105658;1258;75685;-79
2023/10/15 10:30:56;;;;;;;;;;;;;;;12.82;61.54;100396.86;105609;1260;124634;-78
2023/10/15 10:33:42;;;;;;;;;;;;;;;12.90;61.45;100403.98;105886;1259;72576;-79
2023/10/15 10:36:22;;;;;;;;;;;;;;;12.97;61.26;100402.10;105902;1260;62805;-78
2023/10/15 10:39:15;;;;;;;;;;;;;;;12.96;60.61;100398.76;105892;1260;62166;-79
2023/10/15 10:41:46;;;;;;;;;;;;;;;12.88;60.63;100390.23;105893;1262;75570;-77
2023/10/15 10:44:34;;;;;;;;;;;;;;;12.83;60.65;100388.41;105779;1257;125142;-79
2023/10/15 10:47:15;;;;;;;;;;;;;;;12.75;60.64;100392.74;105853;1263;72684;-79
2023/10/15 10:49:41;;;;;;;;;;;;;;;12.67;60.34;100399.16;105696;1261;124460;-81
2023/10/15 10:52:15;;;;;;;;;;;;;;;12.60;60.33;100398.20;105707;1265;62029;-79
2023/10/15 10:54:42;;;;;;;;;;;;;;;12.59;60.52;100407.70;105660;1263;124798;-81
2023/10/15 10:57:09;;;;;;;;;;;;;;;12.72;60.91;100411.73;105783;1260;65696;-81
2023/10/15 10:59:36;;;;;;;;;;;;;;;12.95;60.78;100415.30;105817;1260;71386;-81
2023/10/15 11:02:04;;;;;;;;;;;;;;;13.10;60.57;100417.90;105819;1260;125142;-82
2023/10/15 11:04:31;;;;;;;;;;;;;;;13.02;60.05;100411.67;105858;1259;62176;-81
2023/10/15 11:06:58;;;;;;;;;;;;;;;12.85;60.14;100410.44;105753;1262;124785;-81
2023/10/15 11:09:25;;;;;;;;;;;;;;;12.75;60.32;100409.65;105781;1260;65937;-81
2023/10/15 11:11:55;;;;;;;;;;;;;;;12.65;60.35;100406.89;105922;1262;71596;-82
2023/10/15 11:14:23;;;;;;;;;;;;;;;12.58;60.70;100405.41;106401;1259;125061;-82
2023/10/15 11:16:53;;;;;;;;;;;;;;;12.48;60.49;100401.23;106419;1265;62056;-81
2023/10/15 11:19:23;;;;;;;;;;;;;;;12.36;60.70;100397.77;106365;1261;123698;-82
2023/10/15 11:21:50;;;;;;;;;;;;;;;12.33;60.77;100392.27;106406;1262;65039;-82
2023/10/15 11:24:17;;;;;;;;;;;;;;;12.30;60.66;100392.41;106258;1263;125054;-81
2023/10/15 11:26:44;;;;;;;;;;;;;;;12.32;60.84;100388.56;106486;1259;62427;-82
2023/10/15 11:29:12;;;;;;;;;;;;;;;12.51;60.77;100391.23;106564;1260;61944;-82
2023/10/15 11:31:43;;;;;;;;;;;;;;;12.68;60.62;100391.79;106296;1259;124496;-82
2023/10/15 11:34:13;;;;;;;;;;;;;;;12.81;60.48;100392.27;106542;1262;66922;-80
2023/10/15 11:36:43;;;;;;;;;;;;;;;12.96;60.23;100386.78;106205;1259;124852;-79
2023/10/15 11:39:18;;;;;;;;;;;;;;;13.05;59.90;100393.55;106532;1262;62446;-83
2023/10/15 11:41:51;;;;;;;;;;;;;;;13.15;59.56;100388.89;106451;1260;62015;-83
2023/10/15 11:44:25;;;;;;;;;;;;;;;13.22;59.33;100383.48;106299;1258;125327;-86
2023/10/15 11:46:55;;;;;;;;;;;;;;;13.19;58.87;100386.28;106483;1260;65476;-84
2023/10/15 11:49:22;;;;;;;;;;;;;;;13.12;58.53;100392.73;106384;1260;124648;-84
2023/10/15 11:51:49;;;;;;;;;;;;;;;13.04;58.20;100386.85;106550;1259;62158;-84
2023/10/15 11:54:16;;;;;;;;;;;;;;;12.93;57.97;100384.99;106422;1260;124548;-82
2023/10/15 11:56:50;;;;;;;;;;;;;;;12.80;57.78;100387.86;107614;1260;75503;-83
2023/10/15 11:59:16;;;;;;;;;;;;;;;12.68;57.82;100387.02;106601;1257;65339;-84
2023/10/15 12:01:51;;;;;;;;;;;;;;;12.58;57.67;100393.96;106426;1260;124587;-83
2023/10/15 12:04:19;;;;;;;;;;;;;;;12.54;57.72;100387.58;106419;1260;60156;-84
2023/10/15 12:06:46;;;;;;;;;;;;;;;12.49;57.65;100387.70;106403;1259;124775;-84
2023/10/15 12:09:16;;;;;;;;;;;;;;;12.39;57.59;100390.57;106635;1260;75507;-84
2023/10/15 12:11:46;;;;;;;;;;;;;;;12.36;57.58;100385.96;106754;1262;66087;-84
2023/10/15 12:14:13;;;;;;;;;;;;;;;12.39;57.61;100380.72;106364;1260;123645;-84
2023/10/15 12:16:40;;;;;;;;;;;;;;;12.39;57.60;100384.60;106473;1259;61955;-84
2023/10/15 12:19:08;;;;;;;;;;;;;;;12.37;57.43;100392.84;106366;1263;124550;-83
2023/10/15 12:21:38;;;;;;;;;;;;;;;12.33;57.37;100398.06;106484;1262;74631;-80
2023/10/15 12:24:05;;;;;;;;;;;;;;;12.36;57.58;100391.60;105865;1260;65728;-80
2023/10/15 12:26:32;;;;;;;;;;;;;;;12.42;57.49;100398.53;105666;1265;124724;-80
2023/10/15 12:28:59;;;;;;;;;;;;;;;12.39;57.28;100405.36;105863;1262;62177;-83
2023/10/15 12:31:26;;;;;;;;;;;;;;;12.36;57.24;100409.01;106038;1262;124352;-83
2023/10/15 12:33:55;;;;;;;;;;;;;;;12.31;56.99;100416.16;106598;1263;75477;-83
2023/10/15 12:36:21;;;;;;;;;;;;;;;12.25;56.90;100415.58;106483;1262;126482;-82
2023/10/15 12:38:48;;;;;;;;;;;;;;;12.20;56.99;100414.96;106585;1263;70643;-81
2023/10/15 12:41:15;;;;;;;;;;;;;;;12.20;57.08;100411.29;106527;1263;62165;-81
2023/10/15 12:43:42;;;;;;;;;;;;;;;12.16;56.68;100414.57;106288;1259;124859;-81